Time;durP1;ratioP1;P1;durP2;ratioP2;P2;SDS_P1;SDS_P2;PMS_P1;PMS_P2;Temp;Humidity;BMP_temperature;BMP_pressure;BME280_temperature;BME280_humidity;BME280_pressure;Samples;Min_cycle;Max_cycle;Signal;HPM_P1;HPM_P2
2021/05/07 00:01:36;;;;;;;;;;;;;;;12.64;48.55;100093.91;5044006;27;99021;-75
2021/05/07 00:04:03;;;;;;;;;;;;;;;12.68;48.50;100092.78;5049701;27;99155;-75
2021/05/07 00:06:29;;;;;;;;;;;;;;;12.57;49.07;100095.19;5046999;27;97180;-75
2021/05/07 00:08:55;;;;;;;;;;;;;;;12.68;48.63;100087.50;5046873;27;96961;-76
2021/05/07 00:11:21;;;;;;;;;;;;;;;12.58;49.02;100094.25;5045381;27;99243;-75
2021/05/07 00:13:47;;;;;;;;;;;;;;;12.75;48.52;100086.22;5043686;27;98814;-75
2021/05/07 00:16:13;;;;;;;;;;;;;;;12.58;49.43;100084.50;5049601;27;97651;-75
2021/05/07 00:18:39;;;;;;;;;;;;;;;12.55;49.44;100083.78;5046375;27;97602;-76
2021/05/07 00:21:06;;;;;;;;;;;;;;;12.68;49.38;100074.25;5048013;27;98930;-75
2021/05/07 00:23:32;;;;;;;;;;;;;;;12.68;49.39;100074.25;5050364;27;99377;-74
2021/05/07 00:25:58;;;;;;;;;;;;;;;12.57;49.46;100081.94;5049521;27;97192;-76
2021/05/07 00:28:23;;;;;;;;;;;;;;;12.50;49.61;100085.84;5053451;27;96884;-76
2021/05/07 00:30:49;;;;;;;;;;;;;;;12.39;50.06;100083.78;5052080;27;98902;-76
2021/05/07 00:33:16;;;;;;;;;;;;;;;12.55;49.50;100086.44;5038378;27;98897;-76
2021/05/07 00:35:41;;;;;;;;;;;;;;;12.37;49.90;100077.69;5043516;27;97677;-75
2021/05/07 00:38:08;;;;;;;;;;;;;;;12.28;50.39;100076.38;5048287;27;96939;-76
2021/05/07 00:40:35;;;;;;;;;;;;;;;12.24;50.24;100069.56;5042211;27;98880;-75
2021/05/07 00:43:01;;;;;;;;;;;;;;;12.55;48.95;100073.19;5057852;27;99216;-75
2021/05/07 00:45:27;;;;;;;;;;;;;;;12.87;47.53;100071.44;5051173;27;96977;-75
2021/05/07 00:47:56;;;;;;;;;;;;;;;12.42;48.52;100066.84;5052015;27;97024;-75
2021/05/07 00:50:24;;;;;;;;;;;;;;;12.29;49.00;100067.50;5046008;27;99306;-75
2021/05/07 00:52:49;;;;;;;;;;;;;;;12.65;48.46;100064.69;5050477;27;101225;-75
2021/05/07 00:55:18;;;;;;;;;;;;;;;12.33;48.85;100062.91;5046719;27;97443;-76
2021/05/07 00:57:44;;;;;;;;;;;;;;;12.61;48.42;100067.56;5052772;27;96898;-76
2021/05/07 01:00:10;;;;;;;;;;;;;;;12.24;49.22;100074.00;5048391;27;99014;-76
2021/05/07 01:02:36;;;;;;;;;;;;;;;12.14;49.84;100073.59;5038626;27;99726;-76
2021/05/07 01:05:02;;;;;;;;;;;;;;;12.31;49.60;100070.94;5037417;27;96935;-75
2021/05/07 01:07:28;;;;;;;;;;;;;;;12.06;50.35;100070.53;5053847;27;96872;-75
2021/05/07 01:09:54;;;;;;;;;;;;;;;12.30;49.88;100061.28;5038213;27;98981;-77
2021/05/07 01:12:20;;;;;;;;;;;;;;;12.47;49.62;100072.78;5049989;27;100771;-75
2021/05/07 01:14:58;;;;;;;;;;;;;;;12.45;49.44;100066.69;5051988;27;96937;-75
2021/05/07 01:17:24;;;;;;;;;;;;;;;12.43;49.46;100068.56;5054717;27;97064;-74
2021/05/07 01:19:50;;;;;;;;;;;;;;;12.50;49.09;100067.28;5053987;27;98820;-75
2021/05/07 01:22:16;;;;;;;;;;;;;;;12.56;48.42;100064.31;5055874;27;98976;-75
2021/05/07 01:24:42;;;;;;;;;;;;;;;12.57;48.31;100066.03;5050627;27;96939;-73
2021/05/07 01:27:08;;;;;;;;;;;;;;;12.57;47.88;100058.06;5051857;27;96835;-75
2021/05/07 01:29:34;;;;;;;;;;;;;;;12.76;47.46;100062.28;5056226;27;99078;-75
2021/05/07 01:31:59;;;;;;;;;;;;;;;12.71;47.41;100058.19;5050659;27;98779;-75
2021/05/07 01:34:25;;;;;;;;;;;;;;;12.80;47.95;100055.00;5054207;27;97082;-75
2021/05/07 01:36:51;;;;;;;;;;;;;;;12.59;48.61;100059.72;5054473;27;97558;-75
2021/05/07 01:39:17;;;;;;;;;;;;;;;12.72;47.85;100062.56;5045409;27;99928;-74
2021/05/07 01:41:43;;;;;;;;;;;;;;;12.60;48.35;100060.56;5049876;27;99106;-74
2021/05/07 01:44:09;;;;;;;;;;;;;;;12.57;48.63;100055.44;5050559;27;97279;-75
2021/05/07 01:46:35;;;;;;;;;;;;;;;12.64;48.40;100064.75;5049016;27;96969;-75
2021/05/07 01:49:01;;;;;;;;;;;;;;;12.77;46.96;100063.16;5052122;27;98995;-75
2021/05/07 01:51:26;;;;;;;;;;;;;;;12.76;46.68;100056.13;5049181;27;98866;-74
2021/05/07 01:53:52;;;;;;;;;;;;;;;12.79;46.74;100063.94;5055269;27;97437;-74
2021/05/07 01:56:19;;;;;;;;;;;;;;;12.63;47.13;100057.75;5057868;27;99373;-74
2021/05/07 01:58:45;;;;;;;;;;;;;;;12.77;46.37;100064.00;5055946;27;101036;-76
2021/05/07 02:01:11;;;;;;;;;;;;;;;13.03;45.96;100057.25;5051512;27;99715;-75
2021/05/07 02:03:37;;;;;;;;;;;;;;;12.93;45.78;100064.00;5066836;27;96792;-76
2021/05/07 02:06:03;;;;;;;;;;;;;;;12.76;45.95;100064.09;5061367;27;96883;-75
2021/05/07 02:08:29;;;;;;;;;;;;;;;12.72;46.18;100055.47;5057811;27;98979;-75
2021/05/07 02:10:54;;;;;;;;;;;;;;;12.57;47.46;100063.38;5053977;27;98804;-75
2021/05/07 02:13:21;;;;;;;;;;;;;;;12.66;47.63;100062.88;5060182;27;96966;-75
2021/05/07 02:15:47;;;;;;;;;;;;;;;12.59;47.62;100059.72;5057584;27;97242;-75
2021/05/07 02:18:13;;;;;;;;;;;;;;;12.64;47.30;100055.00;5053445;27;98879;-75
2021/05/07 02:20:40;;;;;;;;;;;;;;;12.81;47.19;100054.06;5052579;27;98774;-76
2021/05/07 02:23:10;;;;;;;;;;;;;;;12.66;47.75;100045.19;5056702;27;96819;-75
2021/05/07 02:25:36;;;;;;;;;;;;;;;12.61;47.82;100046.34;5058436;27;96896;-75
2021/05/07 02:28:02;;;;;;;;;;;;;;;12.40;48.32;100056.34;5054623;27;98837;-74
2021/05/07 02:30:30;;;;;;;;;;;;;;;12.19;49.16;100047.75;5053198;27;98190;-75
2021/05/07 02:32:56;;;;;;;;;;;;;;;12.49;48.60;100047.03;5046614;27;97443;-75
2021/05/07 02:35:22;;;;;;;;;;;;;;;12.18;49.67;100042.53;5044486;27;97119;-75
2021/05/07 02:37:48;;;;;;;;;;;;;;;12.42;48.74;100043.00;5054500;27;98920;-76
2021/05/07 02:40:14;;;;;;;;;;;;;;;12.79;47.81;100040.06;5049583;27;98853;-75
2021/05/07 02:42:40;;;;;;;;;;;;;;;12.49;48.44;100047.03;5053888;27;97274;-76
2021/05/07 02:45:10;;;;;;;;;;;;;;;12.27;49.12;100045.53;5043217;27;97473;-76
2021/05/07 02:47:37;;;;;;;;;;;;;;;12.52;48.76;100036.28;5048993;27;97790;-75
2021/05/07 02:50:04;;;;;;;;;;;;;;;12.36;49.36;100042.41;5048873;27;98793;-75
2021/05/07 02:52:30;;;;;;;;;;;;;;;12.03;49.48;100038.03;5048883;27;99311;-75
2021/05/07 02:54:55;;;;;;;;;;;;;;;11.87;50.23;100027.41;5039816;27;97122;-74
2021/05/07 02:57:21;;;;;;;;;;;;;;;12.06;50.00;100038.75;5048931;27;99554;-76
2021/05/07 02:59:47;;;;;;;;;;;;;;;11.83;50.95;100042.56;5049086;27;97744;-75
2021/05/07 03:02:13;;;;;;;;;;;;;;;11.89;50.37;100039.59;5037932;27;96709;-75
2021/05/07 03:04:40;;;;;;;;;;;;;;;12.23;49.92;100046.63;5042207;27;97883;-76
2021/05/07 03:07:06;;;;;;;;;;;;;;;12.23;49.48;100045.78;5049574;27;98791;-75
2021/05/07 03:09:31;;;;;;;;;;;;;;;12.27;49.04;100052.66;5061239;27;99079;-76
2021/05/07 03:11:57;;;;;;;;;;;;;;;12.37;48.62;100051.19;5051986;27;98391;-76
2021/05/07 03:14:23;;;;;;;;;;;;;;;12.38;48.54;100051.13;5047464;27;98801;-76
2021/05/07 03:16:49;;;;;;;;;;;;;;;12.11;49.30;100052.59;5050211;27;98910;-76
2021/05/07 03:19:15;;;;;;;;;;;;;;;12.44;48.30;100049.94;5047446;27;99445;-76
2021/05/07 03:21:41;;;;;;;;;;;;;;;12.31;48.84;100047.09;5050292;27;97012;-76
2021/05/07 03:24:08;;;;;;;;;;;;;;;12.43;48.79;100052.66;5049414;27;97140;-76
2021/05/07 03:26:34;;;;;;;;;;;;;;;12.14;49.09;100057.72;5045378;27;98057;-76
2021/05/07 03:29:00;;;;;;;;;;;;;;;12.14;49.75;100056.88;5037529;27;98823;-76
2021/05/07 03:31:25;;;;;;;;;;;;;;;12.31;48.96;100063.00;5050953;27;97544;-75
2021/05/07 03:33:51;;;;;;;;;;;;;;;12.37;48.52;100060.00;5051342;27;96861;-75
2021/05/07 03:36:17;;;;;;;;;;;;;;;12.22;48.91;100060.81;5051387;27;99225;-75
2021/05/07 03:38:44;;;;;;;;;;;;;;;12.71;47.58;100058.19;5053321;27;99045;-77
2021/05/07 03:41:09;;;;;;;;;;;;;;;12.64;47.24;100057.66;5044896;27;97585;-76
2021/05/07 03:43:35;;;;;;;;;;;;;;;12.74;46.91;100064.16;5046851;27;97216;-76
2021/05/07 03:46:01;;;;;;;;;;;;;;;12.37;48.36;100064.44;5053140;27;101042;-76
2021/05/07 03:48:27;;;;;;;;;;;;;;;12.45;48.38;100072.84;5045194;27;98793;-76
2021/05/07 03:50:55;;;;;;;;;;;;;;;12.40;48.15;100071.41;5048695;27;108609;-76
2021/05/07 03:53:21;;;;;;;;;;;;;;;12.45;48.67;100077.28;5049362;27;97310;-75
2021/05/07 03:55:48;;;;;;;;;;;;;;;12.42;48.23;100077.44;5049718;27;99097;-76
2021/05/07 03:58:14;;;;;;;;;;;;;;;12.35;48.15;100082.22;5043458;27;98863;-75
2021/05/07 04:00:40;;;;;;;;;;;;;;;12.26;49.37;100082.72;5032508;27;97650;-76
2021/05/07 04:03:06;;;;;;;;;;;;;;;12.46;48.82;100090.47;5043294;27;96913;-74
2021/05/07 04:05:32;;;;;;;;;;;;;;;12.78;46.63;100094.03;5049864;27;99624;-75
2021/05/07 04:08:06;;;;;;;;;;;;;;;12.82;46.63;100100.84;5045389;27;101140;-74
2021/05/07 04:10:36;;;;;;;;;;;;;;;12.84;46.00;100101.63;5042248;27;97229;-75
2021/05/07 04:15:46;;;;;;;;;;;;;;;13.10;44.76;100110.81;5044289;27;97817;-75
2021/05/07 04:18:12;;;;;;;;;;;;;;;13.16;43.92;100114.00;5050829;27;98862;-74
2021/05/07 04:20:38;;;;;;;;;;;;;;;13.01;44.06;100108.66;5045110;27;96739;-75
2021/05/07 04:23:04;;;;;;;;;;;;;;;12.93;43.75;100110.91;5051719;27;97249;-75
2021/05/07 04:25:30;;;;;;;;;;;;;;;13.07;43.57;100114.47;5050409;27;98954;-76
2021/05/07 04:27:55;;;;;;;;;;;;;;;12.82;43.91;100119.41;5041254;27;99152;-76
2021/05/07 04:30:23;;;;;;;;;;;;;;;13.02;43.63;100115.66;5041788;27;96822;-76
2021/05/07 04:32:49;;;;;;;;;;;;;;;13.08;43.71;100120.63;5044374;27;96973;-75
2021/05/07 04:35:14;;;;;;;;;;;;;;;13.10;43.71;100119.63;5051941;27;98889;-76
2021/05/07 04:37:40;;;;;;;;;;;;;;;12.99;44.05;100122.03;5051124;27;98774;-76
2021/05/07 04:40:07;;;;;;;;;;;;;;;13.14;43.48;100123.84;5040365;27;98390;-75
2021/05/07 04:42:32;;;;;;;;;;;;;;;13.54;42.64;100126.88;5049732;27;98554;-76
2021/05/07 04:44:58;;;;;;;;;;;;;;;13.63;42.40;100130.81;5049891;27;99114;-76
2021/05/07 04:47:25;;;;;;;;;;;;;;;13.35;43.06;100145.66;5051059;27;99188;-76
2021/05/07 04:49:51;;;;;;;;;;;;;;;12.89;43.55;100149.09;5047215;27;96932;-76
2021/05/07 04:52:16;;;;;;;;;;;;;;;13.05;43.39;100155.31;5050626;27;96943;-76
2021/05/07 04:54:42;;;;;;;;;;;;;;;12.97;42.50;100161.00;5046752;27;98959;-76
2021/05/07 04:57:08;;;;;;;;;;;;;;;13.07;42.26;100162.22;5048477;27;99193;-77
2021/05/07 04:59:34;;;;;;;;;;;;;;;12.89;41.89;100171.19;5040623;27;96845;-77
2021/05/07 05:02:00;;;;;;;;;;;;;;;12.84;41.56;100175.03;5050348;27;97163;-78
2021/05/07 05:04:26;;;;;;;;;;;;;;;12.59;41.97;100176.34;5042064;27;97548;-77
2021/05/07 05:06:52;;;;;;;;;;;;;;;12.60;41.65;100188.63;5048619;27;99273;-77
2021/05/07 05:09:20;;;;;;;;;;;;;;;12.83;41.27;100174.16;5045327;27;96867;-76
2021/05/07 05:11:45;;;;;;;;;;;;;;;12.68;41.15;100181.13;5052544;27;96950;-76
2021/05/07 05:14:11;;;;;;;;;;;;;;;12.65;40.28;100185.75;5050740;27;97883;-78
2021/05/07 05:16:37;;;;;;;;;;;;;;;12.27;40.90;100196.53;5044249;27;99384;-76
2021/05/07 05:19:03;;;;;;;;;;;;;;;12.05;41.28;100195.91;5044370;27;98829;-76
2021/05/07 05:21:30;;;;;;;;;;;;;;;12.31;40.39;100200.75;5041411;27;98381;-76
2021/05/07 05:23:55;;;;;;;;;;;;;;;11.86;40.90;100197.75;5046017;27;99064;-75
2021/05/07 05:26:21;;;;;;;;;;;;;;;12.46;40.86;100206.19;5052864;27;98841;-74
2021/05/07 05:28:47;;;;;;;;;;;;;;;12.38;40.96;100214.53;5048519;27;98028;-75
2021/05/07 05:31:13;;;;;;;;;;;;;;;11.98;41.02;100219.19;5052383;27;97193;-77
2021/05/07 05:33:39;;;;;;;;;;;;;;;12.51;40.38;100212.13;5050938;27;98932;-75
2021/05/07 05:36:05;;;;;;;;;;;;;;;12.36;41.64;100206.66;5050470;27;98841;-76
2021/05/07 05:38:32;;;;;;;;;;;;;;;12.47;41.05;100214.03;5048485;27;97419;-76
2021/05/07 05:40:58;;;;;;;;;;;;;;;12.38;41.72;100214.53;5049135;27;97008;-74
2021/05/07 05:43:24;;;;;;;;;;;;;;;12.63;41.50;100214.97;5042066;27;101350;-75
2021/05/07 05:45:50;;;;;;;;;;;;;;;12.66;41.25;100220.13;5043937;27;98902;-74
2021/05/07 05:48:18;;;;;;;;;;;;;;;12.09;43.29;100216.00;5050662;27;97506;-75
2021/05/07 05:50:45;;;;;;;;;;;;;;;10.70;45.75;100221.69;5043423;27;97193;-76
2021/05/07 05:53:11;;;;;;;;;;;;;;;10.60;46.23;100228.31;5048608;27;99011;-76
2021/05/07 05:55:38;;;;;;;;;;;;;;;10.82;45.73;100227.38;5044994;27;98809;-76
2021/05/07 05:58:04;;;;;;;;;;;;;;;10.78;45.77;100218.69;5045417;27;97247;-77
2021/05/07 06:00:30;;;;;;;;;;;;;;;10.59;47.42;100221.28;5046399;27;97255;-76
2021/05/07 06:02:56;;;;;;;;;;;;;;;11.03;46.00;100215.78;5051379;27;98887;-76
2021/05/07 06:05:21;;;;;;;;;;;;;;;11.05;45.96;100227.16;5043724;27;98780;-76
2021/05/07 06:07:47;;;;;;;;;;;;;;;11.57;44.60;100234.41;5046456;27;97442;-75
2021/05/07 06:10:14;;;;;;;;;;;;;;;11.74;44.11;100233.63;5033508;27;96791;-79
2021/05/07 06:12:41;;;;;;;;;;;;;;;10.87;46.18;100231.50;5034905;27;99019;-75
2021/05/07 06:15:07;;;;;;;;;;;;;;;10.82;46.59;100240.56;5045803;27;98901;-76
2021/05/07 06:17:33;;;;;;;;;;;;;;;11.63;45.16;100235.03;5049414;27;97153;-75
2021/05/07 06:20:02;;;;;;;;;;;;;;;11.96;44.49;100238.72;5043564;27;96882;-77
2021/05/07 06:22:28;;;;;;;;;;;;;;;12.27;44.67;100230.97;5049906;27;99048;-76
2021/05/07 06:24:53;;;;;;;;;;;;;;;12.13;44.03;100241.41;5041741;27;98973;-76
2021/05/07 06:27:19;;;;;;;;;;;;;;;11.91;44.87;100246.03;5046748;27;96880;-77
2021/05/07 06:29:46;;;;;;;;;;;;;;;11.14;46.60;100254.06;5037379;27;96796;-76
2021/05/07 06:32:12;;;;;;;;;;;;;;;11.44;46.28;100249.13;5040727;27;99008;-77
2021/05/07 06:34:37;;;;;;;;;;;;;;;11.24;46.55;100249.19;5031111;27;97458;-77
2021/05/07 06:37:03;;;;;;;;;;;;;;;10.99;48.25;100257.41;5025549;28;97117;-76
2021/05/07 06:39:30;;;;;;;;;;;;;;;10.66;49.36;100258.88;5027926;28;97810;-75
2021/05/07 06:41:56;;;;;;;;;;;;;;;11.34;48.50;100261.09;5024703;28;99141;-75
2021/05/07 06:44:21;;;;;;;;;;;;;;;10.95;48.46;100265.53;5023441;28;99291;-76
2021/05/07 06:46:48;;;;;;;;;;;;;;;11.13;49.89;100262.91;5024616;28;97183;-76
2021/05/07 06:49:14;;;;;;;;;;;;;;;10.90;49.84;100264.84;5025661;28;97546;-76
2021/05/07 06:51:40;;;;;;;;;;;;;;;11.42;49.77;100263.38;5026310;28;98787;-75
2021/05/07 06:54:08;;;;;;;;;;;;;;;11.73;48.72;100258.34;5022457;28;97866;-75
2021/05/07 06:56:34;;;;;;;;;;;;;;;12.08;47.25;100269.06;5025128;28;96771;-76
2021/05/07 06:59:00;;;;;;;;;;;;;;;10.99;49.03;100273.25;5032017;28;96996;-76
2021/05/07 07:01:26;;;;;;;;;;;;;;;11.41;47.82;100272.25;5032128;28;97904;-76
2021/05/07 07:03:52;;;;;;;;;;;;;;;11.55;47.94;100275.94;5031838;28;100977;-76
2021/05/07 07:06:18;;;;;;;;;;;;;;;11.57;48.05;100278.53;5030974;28;97131;-76
2021/05/07 07:08:45;;;;;;;;;;;;;;;11.49;49.26;100288.59;5033066;28;97100;-76
2021/05/07 07:11:11;;;;;;;;;;;;;;;11.43;49.38;100283.59;5024244;28;99235;-77
2021/05/07 07:13:37;;;;;;;;;;;;;;;11.01;49.04;100289.06;5029441;28;99359;-76
2021/05/07 07:16:03;;;;;;;;;;;;;;;11.47;49.91;100293.13;5025053;27;97291;-78
2021/05/07 07:18:29;;;;;;;;;;;;;;;12.13;47.73;100291.75;5034286;28;96873;-78
2021/05/07 07:20:55;;;;;;;;;;;;;;;11.62;48.60;100294.22;5035172;27;99079;-75
2021/05/07 07:23:21;;;;;;;;;;;;;;;11.37;49.27;100297.97;5039997;27;101298;-77
2021/05/07 07:25:47;;;;;;;;;;;;;;;11.30;49.92;100295.66;5032046;27;98204;-77
2021/05/07 07:28:17;;;;;;;;;;;;;;;10.20;52.64;100302.22;5027923;27;98064;-78
2021/05/07 07:30:43;;;;;;;;;;;;;;;10.49;53.81;100306.31;5031912;27;99184;-76
2021/05/07 07:33:09;;;;;;;;;;;;;;;10.75;51.73;100309.56;5044383;28;97899;-76
2021/05/07 07:35:35;;;;;;;;;;;;;;;11.48;52.19;100310.72;5047897;28;96686;-76
2021/05/07 07:38:02;;;;;;;;;;;;;;;11.70;50.90;100311.41;5048203;28;96811;-76
2021/05/07 07:40:27;;;;;;;;;;;;;;;10.88;53.13;100314.31;5037830;28;97986;-75
2021/05/07 07:42:53;;;;;;;;;;;;;;;10.94;52.16;100319.34;5043764;28;98815;-76
2021/05/07 07:45:19;;;;;;;;;;;;;;;11.08;52.13;100311.66;5043874;28;97324;-77
2021/05/07 07:47:45;;;;;;;;;;;;;;;10.71;53.41;100323.81;5019398;28;99210;-75
2021/05/07 07:50:11;;;;;;;;;;;;;;;10.48;54.05;100331.84;5029879;28;98940;-76
2021/05/07 07:52:38;;;;;;;;;;;;;;;10.04;54.58;100333.63;5031120;28;99023;-76
2021/05/07 07:55:06;;;;;;;;;;;;;;;9.90;55.80;100335.97;5022753;28;99093;-76
2021/05/07 07:57:32;;;;;;;;;;;;;;;9.76;55.63;100344.41;5026909;28;96928;-77
2021/05/07 08:00:02;;;;;;;;;;;;;;;9.14;57.00;100346.72;5030144;28;98799;-78
2021/05/07 08:02:29;;;;;;;;;;;;;;;9.39;56.43;100354.59;5001117;28;101129;-77
2021/05/07 08:04:55;;;;;;;;;;;;;;;9.13;59.04;100360.81;5019481;28;97556;-76
2021/05/07 08:07:21;;;;;;;;;;;;;;;8.88;58.28;100367.88;5019182;28;98100;-77
2021/05/07 08:09:47;;;;;;;;;;;;;;;8.96;59.12;100379.88;5027653;28;101388;-75
2021/05/07 08:12:14;;;;;;;;;;;;;;;9.27;57.94;100381.41;5023486;28;97886;-77
2021/05/07 08:14:40;;;;;;;;;;;;;;;9.20;58.62;100384.28;5025829;28;98029;-76
2021/05/07 08:17:06;;;;;;;;;;;;;;;9.01;59.64;100385.84;5029588;28;97387;-77
2021/05/07 08:19:32;;;;;;;;;;;;;;;8.94;60.38;100396.63;5024066;27;98913;-76
2021/05/07 08:21:58;;;;;;;;;;;;;;;9.36;59.28;100396.91;5021353;27;97802;-77
2021/05/07 08:24:24;;;;;;;;;;;;;;;9.32;58.84;100396.16;4998158;28;97323;-78
2021/05/07 08:26:50;;;;;;;;;;;;;;;9.44;57.37;100408.94;5025634;27;97590;-76
2021/05/07 08:29:17;;;;;;;;;;;;;;;8.89;58.27;100415.25;5019105;28;99164;-75
2021/05/07 08:31:45;;;;;;;;;;;;;;;8.37;60.00;100421.34;5021551;27;99095;-77
2021/05/07 08:34:11;;;;;;;;;;;;;;;9.24;57.97;100415.81;5029883;27;97518;-76
2021/05/07 08:36:36;;;;;;;;;;;;;;;9.33;59.63;100426.88;5032361;27;97840;-76
2021/05/07 08:39:02;;;;;;;;;;;;;;;9.13;58.32;100429.34;5044930;27;98184;-78
2021/05/07 08:41:36;;;;;;;;;;;;;;;9.04;58.80;100434.97;5035473;27;98961;-76
2021/05/07 08:44:02;;;;;;;;;;;;;;;9.30;58.88;100447.25;5036688;27;98552;-76
2021/05/07 08:46:29;;;;;;;;;;;;;;;9.06;57.20;100452.41;5041144;27;98528;-76
2021/05/07 08:48:55;;;;;;;;;;;;;;;8.98;59.42;100462.38;5040214;27;99379;-76
2021/05/07 08:51:24;;;;;;;;;;;;;;;8.92;58.68;100467.88;5043687;27;98733;-78
2021/05/07 08:53:50;;;;;;;;;;;;;;;9.53;56.67;100478.94;5037873;27;99340;-78
2021/05/07 08:56:16;;;;;;;;;;;;;;;9.74;54.85;100477.31;5047632;27;97279;-76
2021/05/07 08:58:46;;;;;;;;;;;;;;;8.60;57.66;100487.31;5044393;27;100277;-76
2021/05/07 09:01:11;;;;;;;;;;;;;;;8.29;60.42;100500.53;5050427;27;99233;-77
2021/05/07 09:03:39;;;;;;;;;;;;;;;8.54;58.93;100505.94;5047601;27;98401;-76
2021/05/07 09:06:14;;;;;;;;;;;;;;;9.11;57.41;100505.00;5045555;27;97873;-75
2021/05/07 09:08:40;;;;;;;;;;;;;;;8.96;56.31;100518.69;5052477;27;101300;-78
2021/05/07 09:11:05;;;;;;;;;;;;;;;8.92;55.86;100523.19;5049877;27;100181;-77
2021/05/07 09:13:31;;;;;;;;;;;;;;;7.66;58.94;100536.56;5045450;27;97171;-77
2021/05/07 09:16:03;;;;;;;;;;;;;;;7.91;58.94;100537.63;5048225;27;97439;-75
2021/05/07 09:18:31;;;;;;;;;;;;;;;8.08;59.09;100547.66;5037119;27;98283;-76
2021/05/07 09:20:59;;;;;;;;;;;;;;;8.94;56.09;100545.06;5043679;27;98084;-76
2021/05/07 09:23:25;;;;;;;;;;;;;;;8.73;55.85;100549.25;5045362;27;98826;-76
2021/05/07 09:26:01;;;;;;;;;;;;;;;9.12;55.01;100556.81;5049101;27;96911;-76
2021/05/07 09:28:27;;;;;;;;;;;;;;;9.18;54.09;100565.38;5049498;27;99223;-77
2021/05/07 09:30:52;;;;;;;;;;;;;;;9.15;53.86;100560.19;5039667;27;99587;-76
2021/05/07 09:33:18;;;;;;;;;;;;;;;9.71;53.40;100568.00;5041480;27;98510;-77
2021/05/07 09:35:44;;;;;;;;;;;;;;;9.81;52.34;100572.03;5056268;27;97705;-76
2021/05/07 09:38:12;;;;;;;;;;;;;;;10.10;50.90;100576.28;5053444;27;98966;-76
2021/05/07 09:40:39;;;;;;;;;;;;;;;10.30;49.97;100576.44;5060344;27;98766;-77
2021/05/07 09:43:07;;;;;;;;;;;;;;;10.65;49.32;100583.03;5058158;27;96897;-77
2021/05/07 09:45:33;;;;;;;;;;;;;;;10.31;48.95;100582.56;5059339;27;97149;-76
2021/05/07 09:47:59;;;;;;;;;;;;;;;10.57;49.20;100592.16;5054459;27;99206;-76
2021/05/07 09:50:36;;;;;;;;;;;;;;;10.50;50.12;100594.16;5055962;27;100273;-76
2021/05/07 09:53:10;;;;;;;;;;;;;;;10.78;49.74;100601.91;5057273;27;97374;-75
2021/05/07 09:55:37;;;;;;;;;;;;;;;10.78;50.47;100605.44;5054067;27;97237;-76
2021/05/07 09:58:03;;;;;;;;;;;;;;;10.97;50.14;100610.00;5049344;27;99068;-75
2021/05/07 10:00:30;;;;;;;;;;;;;;;11.44;48.63;100606.31;5052287;27;99003;-74
2021/05/07 10:02:56;;;;;;;;;;;;;;;11.36;50.19;100618.13;5050246;27;96987;-76
2021/05/07 10:05:23;;;;;;;;;;;;;;;10.93;50.64;100624.25;5047506;27;98541;-75
2021/05/07 10:07:49;;;;;;;;;;;;;;;11.14;50.35;100628.72;5046194;27;98826;-77
2021/05/07 10:10:15;;;;;;;;;;;;;;;10.69;51.17;100626.94;5035346;27;98952;-77
2021/05/07 10:12:44;;;;;;;;;;;;;;;10.03;52.45;100624.94;5041981;27;98712;-77
2021/05/07 10:15:10;;;;;;;;;;;;;;;10.58;51.42;100625.59;5042578;27;97270;-74
2021/05/07 10:17:36;;;;;;;;;;;;;;;10.87;50.76;100624.50;5044215;27;98112;-77
2021/05/07 10:20:02;;;;;;;;;;;;;;;11.20;50.93;100628.47;5046444;27;99196;-75
2021/05/07 10:22:37;;;;;;;;;;;;;;;11.05;50.10;100632.56;5050991;27;97146;-76
2021/05/07 10:25:12;;;;;;;;;;;;;;;11.84;50.11;100636.44;5052471;27;97245;-76
2021/05/07 10:27:44;;;;;;;;;;;;;;;11.75;48.80;100642.13;5055115;27;98911;-75
2021/05/07 10:30:29;;;;;;;;;;;;;;;12.06;48.70;100639.03;5046748;27;97957;-77
2021/05/07 10:32:56;;;;;;;;;;;;;;;12.17;47.12;100635.00;5056344;27;97971;-75
2021/05/07 10:35:29;;;;;;;;;;;;;;;12.72;48.04;100628.09;5045830;27;97278;-76
2021/05/07 10:37:54;;;;;;;;;;;;;;;13.18;46.94;100627.75;5051125;27;98890;-76
2021/05/07 10:40:22;;;;;;;;;;;;;;;13.40;45.92;100623.94;5049221;27;98867;-77
2021/05/07 10:42:56;;;;;;;;;;;;;;;13.63;46.18;100633.44;5047621;27;96848;-77
2021/05/07 10:45:37;;;;;;;;;;;;;;;13.60;45.99;100638.03;5041814;27;97145;-75
2021/05/07 10:48:11;;;;;;;;;;;;;;;13.87;44.65;100641.97;5043034;27;99354;-76
2021/05/07 10:50:39;;;;;;;;;;;;;;;14.11;45.56;100651.34;5045433;27;98872;-75
2021/05/07 10:53:05;;;;;;;;;;;;;;;14.33;45.71;100648.44;5042466;27;98396;-76
2021/05/07 10:55:32;;;;;;;;;;;;;;;14.13;46.30;100641.50;5046177;27;97801;-76
2021/05/07 10:58:01;;;;;;;;;;;;;;;14.09;45.96;100652.38;5042094;27;98962;-75
2021/05/07 11:00:32;;;;;;;;;;;;;;;14.32;43.76;100649.38;5046339;27;98203;-76
2021/05/07 11:02:58;;;;;;;;;;;;;;;13.98;46.01;100655.56;5044959;27;97867;-75
2021/05/07 11:05:37;;;;;;;;;;;;;;;13.98;45.75;100653.75;5042111;27;98833;-77
2021/05/07 11:08:05;;;;;;;;;;;;;;;14.09;44.65;100655.91;5044771;27;98899;-76
2021/05/07 11:10:31;;;;;;;;;;;;;;;14.15;44.85;100665.34;5047480;27;99206;-76
2021/05/07 11:12:57;;;;;;;;;;;;;;;13.21;46.05;100668.22;5043007;27;97795;-77
2021/05/07 11:15:24;;;;;;;;;;;;;;;13.72;46.09;100670.16;5048819;27;96979;-79
2021/05/07 11:18:01;;;;;;;;;;;;;;;14.13;45.73;100673.38;5049693;27;99276;-79
2021/05/07 11:20:32;;;;;;;;;;;;;;;13.65;44.71;100674.06;5050531;27;98823;-79
2021/05/07 11:22:58;;;;;;;;;;;;;;;13.47;45.03;100674.94;5051688;27;98537;-80
2021/05/07 11:25:24;;;;;;;;;;;;;;;13.80;44.05;100673.28;5056419;27;97093;-77
2021/05/07 11:27:50;;;;;;;;;;;;;;;13.98;44.46;100666.19;5056183;27;97654;-78
2021/05/07 11:30:17;;;;;;;;;;;;;;;14.11;43.35;100671.75;5057805;27;99085;-78
2021/05/07 11:32:44;;;;;;;;;;;;;;;14.22;44.66;100664.94;5051743;27;97646;-79
2021/05/07 11:35:11;;;;;;;;;;;;;;;14.06;43.70;100681.75;5057665;27;96954;-80
2021/05/07 11:37:39;;;;;;;;;;;;;;;14.44;42.00;100675.34;5056125;27;100251;-79
2021/05/07 11:40:07;;;;;;;;;;;;;;;14.68;42.48;100678.53;5057479;27;102136;-78
2021/05/07 11:42:33;;;;;;;;;;;;;;;14.87;42.83;100678.38;5053118;27;97243;-77
2021/05/07 11:44:59;;;;;;;;;;;;;;;15.31;42.06;100679.44;5050517;27;98235;-77
2021/05/07 11:47:29;;;;;;;;;;;;;;;14.33;42.95;100675.88;5044468;27;99679;-77
2021/05/07 11:49:56;;;;;;;;;;;;;;;13.98;43.67;100675.97;5045870;27;97585;-78
2021/05/07 11:52:31;;;;;;;;;;;;;;;14.03;41.93;100673.94;5046153;27;97252;-79
2021/05/07 11:54:57;;;;;;;;;;;;;;;14.89;42.67;100671.19;5041676;27;97447;-78
2021/05/07 11:57:23;;;;;;;;;;;;;;;14.27;43.07;100670.88;5045988;27;99245;-78
2021/05/07 11:59:49;;;;;;;;;;;;;;;14.92;41.95;100671.88;5037412;27;97633;-77
2021/05/07 12:02:19;;;;;;;;;;;;;;;15.91;40.29;100674.25;5048178;27;96870;-79
2021/05/07 12:04:45;;;;;;;;;;;;;;;16.42;39.02;100672.09;5046188;27;97056;-79
2021/05/07 12:07:25;;;;;;;;;;;;;;;16.29;39.91;100670.16;5042428;27;99431;-80
2021/05/07 12:09:53;;;;;;;;;;;;;;;15.60;39.76;100676.97;5046414;27;101059;-78
2021/05/07 12:12:21;;;;;;;;;;;;;;;15.29;41.31;100689.34;5044962;27;98885;-79
2021/05/07 12:14:49;;;;;;;;;;;;;;;14.46;42.86;100710.69;5046477;27;96872;-78
2021/05/07 12:17:16;;;;;;;;;;;;;;;13.23;46.67;100726.53;5047575;27;98295;-78
2021/05/07 12:19:41;;;;;;;;;;;;;;;11.90;51.49;100723.53;5047584;27;99523;-79
2021/05/07 12:22:07;;;;;;;;;;;;;;;11.96;52.37;100718.84;5053093;27;97131;-79
2021/05/07 12:24:34;;;;;;;;;;;;;;;12.22;51.81;100715.13;5044329;27;97051;-79
2021/05/07 12:27:00;;;;;;;;;;;;;;;12.66;51.04;100704.38;5044914;27;98613;-80
2021/05/07 12:29:33;;;;;;;;;;;;;;;13.47;49.09;100706.81;5047238;27;98860;-81
2021/05/07 12:32:00;;;;;;;;;;;;;;;13.57;48.60;100697.47;5049112;27;98621;-80
2021/05/07 12:34:26;;;;;;;;;;;;;;;14.10;47.92;100713.41;5049688;27;97128;-78
2021/05/07 12:36:56;;;;;;;;;;;;;;;14.34;45.82;100701.53;5042910;27;99150;-78
2021/05/07 12:39:24;;;;;;;;;;;;;;;14.30;48.35;100707.09;5043288;27;98611;-79